createdAt,value
2019-04-16T00:01:49.018Z,100913.81
2019-04-16T00:04:24.984Z,100917.15
2019-04-16T00:06:58.187Z,100927.15
2019-04-16T00:09:31.271Z,100928.39
2019-04-16T00:12:03.758Z,100934.36
2019-04-16T00:14:36.341Z,100940.48
2019-04-16T00:17:13.199Z,100947.85
2019-04-16T00:19:44.284Z,100951.09
2019-04-16T00:22:17.248Z,100950.08
2019-04-16T00:24:49.653Z,100955.02
2019-04-16T00:27:20.949Z,100965.44
2019-04-16T00:29:52.688Z,100968.66
2019-04-16T00:32:26.137Z,100975.53
2019-04-16T00:34:57.580Z,100969.40
2019-04-16T00:37:29.456Z,100977.12
2019-04-16T00:40:00.495Z,100972.08
2019-04-16T00:42:31.591Z,100981.89
2019-04-16T00:45:02.339Z,100983.78
2019-04-16T00:47:32.964Z,100991.86
2019-04-16T00:50:03.959Z,100992.41
2019-04-16T00:52:36.922Z,100999.92
2019-04-16T00:55:13.710Z,101008.37
2019-04-16T00:57:48.420Z,101007.23
2019-04-16T01:00:16.457Z,101020.95
2019-04-16T01:02:48.283Z,101018.19
2019-04-16T01:05:20.010Z,101019.52
2019-04-16T01:07:49.941Z,101027.30
2019-04-16T01:10:22.647Z,101024.35
2019-04-16T01:12:54.415Z,101026.28
2019-04-16T01:15:25.924Z,101027.59
2019-04-16T01:17:57.064Z,101032.67
2019-04-16T01:20:27.386Z,101040.06
2019-04-16T01:22:59.163Z,101040.86
2019-04-16T01:25:30.901Z,101046.86
2019-04-16T01:28:04.200Z,101045.67
2019-04-16T01:30:37.198Z,101050.24
2019-04-16T01:33:14.634Z,101048.23
2019-04-16T01:35:51.029Z,101052.66
2019-04-16T01:38:27.668Z,101058.55
2019-04-16T01:40:58.071Z,101057.01
2019-04-16T01:43:29.705Z,101062.20
2019-04-16T01:46:02.467Z,101074.33
2019-04-16T01:48:38.665Z,101080.48
2019-04-16T01:51:07.729Z,101082.53
2019-04-16T01:53:39.262Z,101081.28
2019-04-16T01:56:09.179Z,101090.91
2019-04-16T01:58:41.169Z,101088.30
2019-04-16T02:01:15.404Z,101095.13
2019-04-16T02:03:48.905Z,101096.04
2019-04-16T02:06:19.953Z,101097.58
2019-04-16T02:08:51.969Z,101097.58
2019-04-16T02:11:23.059Z,101108.05
2019-04-16T02:13:54.655Z,101106.97
2019-04-16T02:16:26.153Z,101112.97
2019-04-16T02:19:00.778Z,101115.48
2019-04-16T02:21:30.595Z,101108.68
2019-04-16T02:24:01.751Z,101111.40
2019-04-16T02:26:31.817Z,101109.06
2019-04-16T02:29:02.740Z,101110.38
2019-04-16T02:31:36.108Z,101108.46
2019-04-16T02:34:09.287Z,101107.34
2019-04-16T02:36:40.889Z,101110.44
2019-04-16T02:39:16.004Z,101110.06
2019-04-16T02:41:46.787Z,101109.72
2019-04-16T02:44:18.647Z,101104.95
2019-04-16T02:47:04.388Z,101101.55
2019-04-16T02:49:30.120Z,101104.27
2019-04-16T02:52:02.089Z,101095.97
2019-04-16T02:54:35.922Z,101089.58
2019-04-16T02:57:08.622Z,101091.88
2019-04-16T02:59:47.347Z,101094.78
2019-04-16T03:02:23.185Z,101069.27
2019-04-16T03:04:58.190Z,101069.27
2019-04-16T03:07:28.496Z,101079.56
2019-04-16T03:10:01.424Z,101084.13
2019-04-16T03:12:33.314Z,101084.34
2019-04-16T03:15:04.324Z,101064.64
2019-04-16T03:17:39.551Z,101064.64
2019-04-16T03:20:11.154Z,101066.50
2019-04-16T03:22:42.555Z,101052.19
2019-04-16T03:25:14.799Z,101063.78
2019-04-16T03:27:47.515Z,101052.58
2019-04-16T03:30:20.540Z,101048.39
2019-04-16T03:32:53.517Z,101048.43
2019-04-16T03:35:26.789Z,101045.06
2019-04-16T03:38:04.174Z,101045.06
2019-04-16T03:40:34.932Z,101032.84
2019-04-16T03:43:06.371Z,101032.84
2019-04-16T03:45:40.320Z,101044.27
2019-04-16T03:48:09.603Z,101042.00
2019-04-16T03:50:41.280Z,101038.41
2019-04-16T03:53:16.391Z,101038.41
2019-04-16T03:55:46.046Z,101041.66
2019-04-16T03:58:17.565Z,101033.80
2019-04-16T04:00:48.747Z,101032.36
2019-04-16T04:03:20.444Z,101034.79
2019-04-16T04:05:52.727Z,101029.91
2019-04-16T04:08:23.468Z,101030.64
2019-04-16T04:10:54.791Z,101028.61
2019-04-16T04:13:26.421Z,101022.78
2019-04-16T04:16:01.214Z,101017.31
2019-04-16T04:18:30.617Z,101017.33
2019-04-16T04:21:01.611Z,101007.64
2019-04-16T04:23:32.176Z,101010.63
2019-04-16T04:26:05.538Z,101005.09
2019-04-16T04:28:36.750Z,100993.56
2019-04-16T04:31:08.242Z,100998.67
2019-04-16T04:33:42.681Z,100994.52
2019-04-16T04:36:14.031Z,100988.30
2019-04-16T04:38:46.951Z,100988.30
2019-04-16T04:41:19.987Z,100979.14
2019-04-16T04:43:52.253Z,100980.03
2019-04-16T04:46:26.849Z,100976.66
2019-04-16T04:49:00.215Z,100969.79
2019-04-16T04:51:32.771Z,100966.73
2019-04-16T04:54:04.437Z,100965.81
2019-04-16T04:56:35.808Z,100966.11
2019-04-16T04:59:07.171Z,100958.49
2019-04-16T05:01:42.087Z,100957.38
2019-04-16T05:04:13.281Z,100955.75
2019-04-16T05:06:45.523Z,100954.16
2019-04-16T05:09:25.206Z,100947.13
2019-04-16T05:11:56.190Z,100946.31
2019-04-16T05:14:27.742Z,100944.36
2019-04-16T05:17:03.538Z,100943.78
2019-04-16T05:19:34.946Z,100934.02
2019-04-16T05:22:06.184Z,100934.05
2019-04-16T05:24:38.720Z,100929.55
2019-04-16T05:27:17.341Z,100922.72
2019-04-16T05:29:49.574Z,100917.17
2019-04-16T05:32:20.665Z,100912.31
2019-04-16T05:34:51.663Z,100899.14
2019-04-16T05:37:23.347Z,100905.16
2019-04-16T05:39:58.616Z,100891.63
2019-04-16T05:42:32.627Z,100890.49
2019-04-16T05:45:06.428Z,100880.04
2019-04-16T05:47:38.059Z,100875.45
2019-04-16T05:50:10.038Z,100877.77
2019-04-16T05:52:44.098Z,100875.09
2019-04-16T05:55:18.044Z,100875.67
2019-04-16T05:57:52.357Z,100867.81
2019-04-16T06:00:25.143Z,100865.88
2019-04-16T06:02:59.243Z,100859.38
2019-04-16T06:05:30.532Z,100855.00
2019-04-16T06:08:06.350Z,100855.78
2019-04-16T06:10:36.884Z,100857.27
2019-04-16T06:13:13.264Z,100846.63
2019-04-16T06:15:44.980Z,100844.52
2019-04-16T06:18:18.743Z,100838.28
2019-04-16T06:20:52.897Z,100831.36
2019-04-16T06:23:26.248Z,100830.19
2019-04-16T06:25:59.430Z,100821.95
2019-04-16T06:28:30.449Z,100818.17
2019-04-16T06:31:04.938Z,100806.33
2019-04-16T06:33:36.291Z,100801.23
2019-04-16T06:36:09.091Z,100794.98
2019-04-16T06:38:41.039Z,100787.23
2019-04-16T06:41:13.537Z,100785.63
2019-04-16T06:43:46.937Z,100779.17
2019-04-16T06:46:19.544Z,100781.52
2019-04-16T06:48:52.918Z,100771.02
2019-04-16T06:51:25.688Z,100767.47
2019-04-16T06:54:00.289Z,100762.98
2019-04-16T06:56:32.743Z,100757.80
2019-04-16T06:59:06.693Z,100756.41
2019-04-16T07:01:41.508Z,100749.88
2019-04-16T07:04:12.654Z,100747.38
2019-04-16T07:06:45.303Z,100744.84
2019-04-16T07:09:23.386Z,100742.43
2019-04-16T07:11:55.118Z,100731.36
2019-04-16T07:14:30.057Z,100734.70
2019-04-16T07:17:01.219Z,100729.72
2019-04-16T07:19:32.185Z,100720.80
2019-04-16T07:22:02.310Z,100712.12
2019-04-16T07:24:37.400Z,100707.59
2019-04-16T07:27:07.997Z,100696.67
2019-04-16T07:29:41.876Z,100699.15
2019-04-16T07:32:14.888Z,100682.45
2019-04-16T07:34:47.654Z,100675.03
2019-04-16T07:37:20.896Z,100673.98
2019-04-16T07:39:56.716Z,100669.19
2019-04-16T07:42:29.674Z,100672.69
2019-04-16T07:45:03.592Z,100675.80
2019-04-16T07:47:38.338Z,100675.06
2019-04-16T07:50:12.276Z,100669.18
2019-04-16T07:52:44.690Z,100665.98
2019-04-16T07:55:17.127Z,100650.90
2019-04-16T07:57:47.851Z,100645.92
2019-04-16T08:00:20.313Z,100651.13
2019-04-16T08:02:53.783Z,100651.13
2019-04-16T08:05:27.904Z,100644.77
2019-04-16T08:07:57.607Z,100641.39
2019-04-16T08:10:29.071Z,100630.74
2019-04-16T08:13:01.886Z,100631.48
2019-04-16T08:15:33.751Z,100627.52
2019-04-16T08:18:06.171Z,100623.25
2019-04-16T08:20:37.321Z,100622.72
2019-04-16T08:23:09.774Z,100613.47
2019-04-16T08:25:41.177Z,100609.14
2019-04-16T08:28:12.201Z,100599.14
2019-04-16T08:30:43.103Z,100595.30
2019-04-16T08:33:16.536Z,100579.92
2019-04-16T08:35:48.770Z,100578.69
2019-04-16T08:38:27.150Z,100574.67
2019-04-16T08:40:59.393Z,100570.55
2019-04-16T08:43:33.699Z,100564.89
2019-04-16T08:46:10.016Z,100558.52
2019-04-16T08:48:38.262Z,100551.78
2019-04-16T08:51:10.613Z,100556.76
2019-04-16T08:53:43.784Z,100554.83
2019-04-16T08:56:18.886Z,100552.96
2019-04-16T08:58:52.163Z,100559.27
2019-04-16T09:01:25.677Z,100556.36
2019-04-16T09:04:01.207Z,100547.25
2019-04-16T09:06:29.622Z,100536.69
2019-04-16T09:09:11.544Z,100542.36
2019-04-16T09:11:36.077Z,100539.71
2019-04-16T09:14:09.392Z,100546.92
2019-04-16T09:16:43.667Z,100541.02
2019-04-16T09:19:16.350Z,100538.64
2019-04-16T09:21:47.358Z,100537.41
2019-04-16T09:24:19.992Z,100536.59
2019-04-16T09:26:55.676Z,100537.52
2019-04-16T09:29:26.712Z,100534.03
2019-04-16T09:32:01.638Z,100537.47
2019-04-16T09:34:35.660Z,100533.13
2019-04-16T09:37:08.937Z,100532.11
2019-04-16T09:39:42.634Z,100530.47
2019-04-16T09:42:14.498Z,100535.33
2019-04-16T09:44:46.869Z,100542.75
2019-04-16T09:47:18.167Z,100546.63
2019-04-16T09:49:48.053Z,100549.89
2019-04-16T09:52:19.744Z,100551.97
2019-04-16T09:54:53.042Z,100542.84
2019-04-16T09:57:24.779Z,100538.44
2019-04-16T09:59:57.697Z,100539.46
2019-04-16T10:02:31.037Z,100548.74
2019-04-16T10:05:03.703Z,100551.84
2019-04-16T10:07:39.955Z,100544.19
2019-04-16T10:10:09.629Z,100532.86
2019-04-16T10:12:44.137Z,100535.69
2019-04-16T10:15:18.673Z,100545.52
2019-04-16T10:17:50.617Z,100550.46
2019-04-16T10:20:22.007Z,100552.19
2019-04-16T10:22:54.014Z,100550.82
2019-04-16T10:25:25.485Z,100562.94
2019-04-16T10:27:57.902Z,100569.33
2019-04-16T10:30:31.249Z,100579.31
2019-04-16T10:33:02.659Z,100579.31
2019-04-16T10:35:34.302Z,100579.13
2019-04-16T10:38:06.829Z,100580.98
2019-04-16T10:40:40.179Z,100572.56
2019-04-16T10:43:17.999Z,100578.82
2019-04-16T10:45:54.362Z,100600.55
2019-04-16T10:48:26.836Z,100600.55
2019-04-16T10:50:59.426Z,100598.74
2019-04-16T10:53:32.676Z,100605.42
2019-04-16T10:56:05.084Z,100609.01
2019-04-16T10:58:36.547Z,100609.11
2019-04-16T11:01:09.096Z,100616.03
2019-04-16T11:03:41.624Z,100616.84
2019-04-16T11:06:15.485Z,100624.69
2019-04-16T11:08:46.591Z,100626.89
2019-04-16T11:11:17.829Z,100638.64
2019-04-16T11:13:59.840Z,100648.67
2019-04-16T11:16:21.949Z,100649.37
2019-04-16T11:18:54.987Z,100648.22
2019-04-16T11:21:25.009Z,100649.12
2019-04-16T11:24:01.945Z,100659.73
2019-04-16T11:26:33.568Z,100664.64
2019-04-16T11:29:05.351Z,100674.33
2019-04-16T11:31:36.737Z,100681.57
2019-04-16T11:34:13.200Z,100687.55
2019-04-16T11:36:44.190Z,100692.61
2019-04-16T11:39:15.301Z,100699.62
2019-04-16T11:41:46.874Z,100710.07
2019-04-16T11:44:23.783Z,100711.98
2019-04-16T11:46:54.957Z,100717.05
2019-04-16T11:49:26.430Z,100721.45
2019-04-16T11:51:57.645Z,100715.50
2019-04-16T11:54:29.355Z,100709.41
2019-04-16T11:57:01.561Z,100713.98
2019-04-16T11:59:32.560Z,100713.17
2019-04-16T12:02:05.126Z,100722.94
2019-04-16T12:04:37.849Z,100730.59
2019-04-16T12:07:10.349Z,100723.84
2019-04-16T12:09:43.207Z,100731.05
2019-04-16T12:12:22.251Z,100735.42
2019-04-16T12:14:54.948Z,100730.58
2019-04-16T12:17:27.527Z,100735.63
2019-04-16T12:20:00.682Z,100748.64
2019-04-16T12:22:34.432Z,100752.85
2019-04-16T12:25:07.918Z,100764.00
2019-04-16T12:27:40.213Z,100765.66
2019-04-16T12:30:13.547Z,100769.38
2019-04-16T12:32:46.283Z,100770.52
2019-04-16T12:35:19.145Z,100771.48
2019-04-16T12:37:58.516Z,100791.63
2019-04-16T12:40:32.463Z,100795.21
2019-04-16T12:43:16.005Z,100802.00
2019-04-16T12:45:44.680Z,100798.20
2019-04-16T12:48:17.247Z,100799.24
2019-04-16T12:50:49.577Z,100795.16
2019-04-16T12:53:22.287Z,100808.91
2019-04-16T12:55:55.064Z,100816.06
2019-04-16T12:58:27.745Z,100816.63
2019-04-16T13:00:59.721Z,100813.38
2019-04-16T13:03:32.014Z,100807.31
2019-04-16T13:06:04.645Z,100803.73
2019-04-16T13:08:42.364Z,100813.73
2019-04-16T13:11:10.899Z,100818.62
2019-04-16T14:31:07.105Z,100877.79
2019-04-16T14:33:40.472Z,100885.81
2019-04-16T14:36:13.342Z,100890.47
2019-04-16T14:38:46.087Z,100893.31
2019-04-16T14:41:17.535Z,100900.27
2019-04-16T14:43:50.441Z,100903.13
2019-04-16T14:46:29.132Z,100914.48
2019-04-16T14:49:01.981Z,100922.16
2019-04-16T14:51:33.575Z,100926.30
2019-04-16T14:54:06.433Z,100928.43
2019-04-16T14:56:38.528Z,100933.68
2019-04-16T14:59:12.057Z,100939.45
2019-04-16T15:01:44.826Z,100939.95
2019-04-16T15:04:17.802Z,100945.20
2019-04-16T15:06:52.899Z,100948.05
2019-04-16T15:09:24.601Z,100957.93
2019-04-16T15:11:58.310Z,100968.52
2019-04-16T15:14:32.737Z,100968.72
2019-04-16T15:17:12.665Z,100965.31
2019-04-16T15:19:43.442Z,100958.58
2019-04-16T15:22:16.524Z,100959.69
2019-04-16T15:24:49.104Z,100962.13
2019-04-16T15:27:23.602Z,100965.91
2019-04-16T15:29:56.594Z,100965.20
2019-04-16T15:32:29.664Z,100968.52
2019-04-16T15:35:03.135Z,100964.64
2019-04-16T15:37:36.495Z,100971.21
2019-04-16T15:40:10.475Z,100972.73
2019-04-16T15:42:42.925Z,100974.03
2019-04-16T15:45:15.901Z,100971.03
2019-04-16T15:47:48.857Z,100968.95
2019-04-16T15:50:35.817Z,100967.25
2019-04-16T15:53:04.508Z,100967.63
2019-04-16T15:55:38.577Z,100972.09
2019-04-16T15:58:14.855Z,100966.58
2019-04-16T16:00:49.986Z,100972.73
2019-04-16T16:03:27.150Z,100975.05
2019-04-16T16:06:06.401Z,100982.94
2019-04-16T16:08:42.021Z,100974.17
2019-04-16T16:11:17.167Z,100970.04
2019-04-16T16:13:51.907Z,100964.03
2019-04-16T16:16:23.557Z,100967.34
2019-04-16T16:19:01.363Z,100926.42
2019-04-16T16:21:33.463Z,100967.61
2019-04-16T16:24:07.952Z,100972.06
2019-04-16T16:26:46.599Z,100966.61
2019-04-16T16:29:33.823Z,100968.55
2019-04-16T16:32:12.187Z,100968.72
2019-04-16T16:34:45.404Z,100978.28
2019-04-16T16:37:17.161Z,100966.93
2019-04-16T16:39:54.047Z,100965.87
2019-04-16T16:42:25.725Z,100966.67
2019-04-16T16:45:02.983Z,100965.55
2019-04-16T16:47:39.644Z,100961.80
2019-04-16T16:50:11.721Z,100954.41
2019-04-16T16:52:50.207Z,100965.11
2019-04-16T16:55:26.303Z,100959.19
2019-04-16T16:57:59.989Z,100954.97
2019-04-16T17:00:39.325Z,100950.28
2019-04-16T17:03:12.748Z,100942.16
2019-04-16T17:05:45.833Z,100937.85
2019-04-16T17:08:27.043Z,100934.45
2019-04-16T17:10:58.210Z,100930.55
2019-04-16T17:13:31.616Z,100927.30
2019-04-16T17:16:06.424Z,100920.83
2019-04-16T17:18:45.613Z,100915.31
2019-04-16T17:21:17.035Z,100913.06
2019-04-16T17:23:48.877Z,100911.97
2019-04-16T17:26:20.441Z,100899.14
2019-04-16T17:28:50.579Z,100903.33
2019-04-16T17:31:22.688Z,100898.08
2019-04-16T17:34:01.193Z,100904.38
2019-04-16T17:36:32.973Z,100899.20
2019-04-16T17:39:09.543Z,100899.02
2019-04-16T17:41:40.557Z,100889.00
2019-04-16T17:44:13.447Z,100883.17
2019-04-16T17:46:46.772Z,100888.73
2019-04-16T17:49:19.645Z,100889.99
2019-04-16T17:51:52.794Z,100893.36
2019-04-16T17:54:25.852Z,100888.73
2019-04-16T17:56:59.080Z,100883.23
2019-04-16T17:59:31.990Z,100882.00
2019-04-16T18:02:04.815Z,100873.79
2019-04-16T18:04:37.872Z,100875.55
2019-04-16T18:07:11.170Z,100871.73
2019-04-16T18:09:44.049Z,100874.26
2019-04-16T18:12:19.865Z,100876.81
2019-04-16T18:14:51.059Z,100876.25
2019-04-16T18:17:26.667Z,100874.55
2019-04-16T18:19:58.564Z,100866.99
2019-04-16T18:22:32.165Z,100867.28
2019-04-16T18:25:05.309Z,100865.50
2019-04-16T18:27:38.453Z,100867.37
2019-04-16T18:30:11.800Z,100865.12
2019-04-16T18:32:45.132Z,100860.61
2019-04-16T18:35:18.725Z,100854.80
2019-04-16T18:37:52.274Z,100855.09
2019-04-16T18:40:32.909Z,100856.16
2019-04-16T18:43:04.464Z,100859.23
2019-04-16T18:45:37.291Z,100854.22
2019-04-16T18:48:13.904Z,100848.42
2019-04-16T18:50:42.274Z,100850.20
2019-04-16T18:53:13.568Z,100849.65
2019-04-16T18:55:45.226Z,100844.08
2019-04-16T18:58:17.462Z,100841.54
2019-04-16T19:00:50.685Z,100838.46
2019-04-16T19:03:21.763Z,100845.34
2019-04-16T19:05:53.431Z,100839.69
2019-04-16T19:08:40.429Z,100838.31
2019-04-16T19:10:58.629Z,100839.19
2019-04-16T19:13:30.367Z,100832.45
2019-04-16T19:16:02.143Z,100835.33
2019-04-16T19:18:33.875Z,100830.52
2019-04-16T19:21:12.023Z,100833.95
2019-04-16T19:23:47.126Z,100825.08
2019-04-16T19:26:25.950Z,100824.69
2019-04-16T19:28:57.619Z,100810.31
2019-04-16T19:31:28.995Z,100818.04
2019-04-16T19:33:59.615Z,100815.50
2019-04-16T19:36:31.280Z,100808.55
2019-04-16T19:39:05.113Z,100801.23
2019-04-16T19:41:34.302Z,100803.66
2019-04-16T19:44:07.721Z,100797.19
2019-04-16T19:46:45.315Z,100801.73
2019-04-16T19:49:15.467Z,100795.11
2019-04-16T19:51:46.715Z,100797.42
2019-04-16T19:54:18.452Z,100796.78
2019-04-16T19:56:51.492Z,100788.78
2019-04-16T19:59:22.461Z,100789.98
2019-04-16T20:01:56.005Z,100790.87
2019-04-16T20:04:27.515Z,100784.86
2019-04-16T20:07:06.006Z,100786.95
2019-04-16T20:09:39.221Z,100785.63
2019-04-16T20:12:10.850Z,100785.63
2019-04-16T20:14:42.347Z,100788.55
2019-04-16T20:17:14.009Z,100791.69
2019-04-16T20:19:46.859Z,100786.33
2019-04-16T20:22:18.022Z,100789.20
2019-04-16T20:24:49.672Z,100782.14
2019-04-16T20:27:20.490Z,100779.80
2019-04-16T20:29:52.271Z,100782.52
2019-04-16T20:32:34.130Z,100783.08
2019-04-16T20:35:10.930Z,100784.02
2019-04-16T20:37:42.742Z,100782.55
2019-04-16T20:40:17.722Z,100781.76
2019-04-16T20:42:51.280Z,100788.55
2019-04-16T20:45:24.208Z,100787.70
2019-04-16T20:47:55.241Z,100783.20
2019-04-16T20:50:26.447Z,100782.75
2019-04-16T20:52:56.747Z,100784.12
2019-04-16T20:55:28.596Z,100785.72
2019-04-16T20:58:00.433Z,100789.70
2019-04-16T21:00:33.734Z,100793.16
2019-04-16T21:03:20.795Z,100798.33
2019-04-16T21:05:38.115Z,100796.58
2019-04-16T21:08:08.428Z,100792.09
2019-04-16T21:10:39.912Z,100802.23
2019-04-16T21:13:10.389Z,100796.23
2019-04-16T21:15:42.141Z,100799.71
2019-04-16T21:18:16.785Z,100798.98
2019-04-16T21:20:51.063Z,100799.77
2019-04-16T21:23:24.799Z,100804.77
2019-04-16T21:25:57.571Z,100809.23
2019-04-16T21:28:30.453Z,100819.70
2019-04-16T21:31:03.246Z,100821.95
2019-04-16T21:33:35.808Z,100816.87
2019-04-16T21:36:08.917Z,100813.14
2019-04-16T21:38:47.809Z,100819.03
2019-04-16T21:41:19.769Z,100823.97
2019-04-16T21:43:51.180Z,100827.67
2019-04-16T21:46:22.920Z,100824.53
2019-04-16T21:48:56.035Z,100824.59
2019-04-16T21:51:26.492Z,100824.20
2019-04-16T21:54:03.671Z,100823.83
2019-04-16T21:56:36.933Z,100821.72
2019-04-16T21:59:09.482Z,100822.05
2019-04-16T22:01:41.739Z,100822.09
2019-04-16T22:04:20.485Z,100827.96
2019-04-16T22:06:52.554Z,100823.83
2019-04-16T22:09:25.136Z,100830.30
2019-04-16T22:11:56.941Z,100827.46
2019-04-16T22:14:27.957Z,100825.73
2019-04-16T22:17:05.107Z,100829.22
2019-04-16T22:19:37.082Z,100829.62
2019-04-16T22:22:11.650Z,100828.60
2019-04-16T22:24:42.362Z,100830.09
2019-04-16T22:27:13.915Z,100827.34
2019-04-16T22:29:47.537Z,100829.22
2019-04-16T22:32:18.544Z,100829.22
